Time;durP1;ratioP1;P1;durP2;ratioP2;P2;SDS_P1;SDS_P2;PMS_P1;PMS_P2;Temp;Humidity;BMP_temperature;BMP_pressure;BME280_temperature;BME280_humidity;BME280_pressure;Samples;Min_cycle;Max_cycle;Signal;HPM_P1;HPM_P2
2023/09/21 00:01:03;;;;;;;5.07;2.05;;;;;;;;;;4916997;29;20024;-71
2023/09/21 00:03:34;;;;;;;7.82;1.98;;;;;;;;;;4917124;29;20488;-72
2023/09/21 00:06:01;;;;;;;5.90;2.03;;;;;;;;;;4916689;29;20060;-72
2023/09/21 00:08:27;;;;;;;3.42;1.98;;;;;;;;;;4916324;29;20052;-72
2023/09/21 00:10:54;;;;;;;5.75;2.10;;;;;;;;;;4916609;29;20497;-71
2023/09/21 00:13:22;;;;;;;5.78;1.90;;;;;;;;;;4916574;29;20070;-76
2023/09/21 00:15:49;;;;;;;5.57;2.47;;;;;;;;;;4916546;29;20495;-71
2023/09/21 00:18:14;;;;;;;5.55;2.00;;;;;;;;;;4916351;29;20067;-72
2023/09/21 00:20:46;;;;;;;4.47;2.47;;;;;;;;;;4916385;29;20103;-72
2023/09/21 00:23:13;;;;;;;7.18;2.45;;;;;;;;;;4916442;29;20025;-73
2023/09/21 00:25:38;;;;;;;4.00;2.00;;;;;;;;;;4916341;29;20059;-77
2023/09/21 00:28:07;;;;;;;3.17;2.00;;;;;;;;;;4922134;29;20110;-72
2023/09/21 00:30:35;;;;;;;4.78;2.08;;;;;;;;;;4935331;29;20027;-72
2023/09/21 00:33:02;;;;;;;4.65;2.08;;;;;;;;;;4935489;29;20170;-72
2023/09/21 00:35:28;;;;;;;6.13;2.03;;;;;;;;;;4935538;29;20075;-72
2023/09/21 05:44:14;;;;;;;2.85;1.98;;;;;;;;;;4952072;28;20495;-71
2023/09/21 05:46:40;;;;;;;4.70;1.88;;;;;;;;;;4954193;28;20058;-71
2023/09/21 05:49:07;;;;;;;4.10;2.22;;;;;;;;;;4953509;28;20463;-71
2023/09/21 05:51:37;;;;;;;3.78;1.95;;;;;;;;;;4952847;28;20155;-73
2023/09/21 05:54:03;;;;;;;3.22;2.10;;;;;;;;;;4954676;28;20027;-73
2023/09/21 05:56:30;;;;;;;2.25;1.70;;;;;;;;;;4957200;28;20031;-72
2023/09/21 05:58:56;;;;;;;2.70;2.05;;;;;;;;;;4957134;28;20027;-73
2023/09/21 06:01:22;;;;;;;3.65;1.90;;;;;;;;;;4956948;28;20031;-72
2023/09/21 06:03:48;;;;;;;3.30;2.00;;;;;;;;;;4956877;28;20027;-72
2023/09/21 06:06:14;;;;;;;2.40;1.88;;;;;;;;;;4956883;28;20028;-73
2023/09/21 06:08:40;;;;;;;2.65;2.10;;;;;;;;;;4956815;28;20015;-72
2023/09/21 06:11:06;;;;;;;3.78;2.15;;;;;;;;;;4956786;28;20487;-72
2023/09/21 06:13:32;;;;;;;4.35;1.95;;;;;;;;;;4957112;28;20050;-73
2023/09/21 06:15:58;;;;;;;4.32;2.47;;;;;;;;;;4957129;28;20046;-72
2023/09/21 06:18:25;;;;;;;3.90;1.90;;;;;;;;;;4958333;28;20030;-73
2023/09/21 06:20:52;;;;;;;4.68;2.20;;;;;;;;;;4956786;28;20031;-72
2023/09/21 06:23:17;;;;;;;4.00;2.03;;;;;;;;;;4956927;28;20114;-72
2023/09/21 06:25:43;;;;;;;2.50;2.17;;;;;;;;;;4956441;28;20102;-73
2023/09/21 06:28:09;;;;;;;2.85;2.00;;;;;;;;;;4956980;28;20027;-72
2023/09/21 06:30:34;;;;;;;2.50;2.10;;;;;;;;;;4955363;28;20050;-73
2023/09/21 06:33:01;;;;;;;1.90;1.73;;;;;;;;;;4956415;28;20054;-75
2023/09/21 06:35:27;;;;;;;4.82;2.10;;;;;;;;;;4956258;28;20491;-72
2023/09/21 06:37:56;;;;;;;5.03;2.10;;;;;;;;;;4956606;28;20035;-72
2023/09/21 06:40:24;;;;;;;4.07;2.40;;;;;;;;;;4956352;29;20025;-74
2023/09/21 06:42:50;;;;;;;4.18;2.17;;;;;;;;;;4957916;28;20053;-73
2023/09/21 06:45:15;;;;;;;2.85;1.90;;;;;;;;;;4958010;28;20523;-72
2023/09/21 06:47:42;;;;;;;6.45;2.00;;;;;;;;;;4957545;28;20034;-71
2023/09/21 06:50:10;;;;;;;2.85;2.25;;;;;;;;;;4956451;28;20028;-71
2023/09/21 06:52:37;;;;;;;2.25;2.03;;;;;;;;;;4953145;28;20038;-72
2023/09/21 06:55:05;;;;;;;4.13;2.08;;;;;;;;;;4955028;28;20096;-71
2023/09/21 06:57:31;;;;;;;2.53;2.08;;;;;;;;;;4957000;28;20259;-72
2023/09/21 06:59:57;;;;;;;4.45;2.17;;;;;;;;;;4959069;28;20031;-72
2023/09/21 07:02:26;;;;;;;2.15;1.98;;;;;;;;;;4959758;28;20050;-72
2023/09/21 07:04:52;;;;;;;2.15;1.95;;;;;;;;;;4957058;29;20102;-72
2023/09/21 07:07:18;;;;;;;2.63;2.15;;;;;;;;;;4960561;28;20023;-74
2023/09/21 07:09:44;;;;;;;2.42;2.22;;;;;;;;;;4956536;28;20441;-73
2023/09/21 07:12:11;;;;;;;5.53;2.00;;;;;;;;;;4953994;28;20027;-72
2023/09/21 07:14:37;;;;;;;2.72;1.95;;;;;;;;;;4953251;28;20042;-73
2023/09/21 07:17:05;;;;;;;3.50;2.00;;;;;;;;;;4958363;28;20015;-72
2023/09/21 07:19:31;;;;;;;8.63;2.45;;;;;;;;;;4957014;28;20019;-71
2023/09/21 07:21:57;;;;;;;4.38;2.20;;;;;;;;;;4954798;28;20039;-71
2023/09/21 07:24:22;;;;;;;4.07;2.00;;;;;;;;;;4956672;28;20041;-71
2023/09/21 07:26:49;;;;;;;3.20;2.17;;;;;;;;;;4954356;28;20400;-72
2023/09/21 07:29:14;;;;;;;4.30;2.20;;;;;;;;;;4957373;29;20028;-70
2023/09/21 07:31:40;;;;;;;2.78;2.17;;;;;;;;;;4959135;28;20047;-70
2023/09/21 07:34:06;;;;;;;3.83;2.10;;;;;;;;;;4954884;28;20042;-71
2023/09/21 07:36:34;;;;;;;6.47;2.63;;;;;;;;;;4953200;28;20471;-72
2023/09/21 07:39:00;;;;;;;7.28;2.58;;;;;;;;;;4949336;29;20035;-71
2023/09/21 07:41:26;;;;;;;10.13;3.95;;;;;;;;;;4959881;28;20035;-75
2023/09/21 07:43:51;;;;;;;12.45;3.28;;;;;;;;;;4965716;28;20051;-74
2023/09/21 07:46:17;;;;;;;7.78;3.20;;;;;;;;;;4965955;28;20027;-75
2023/09/21 07:48:42;;;;;;;5.00;3.13;;;;;;;;;;4961257;29;20400;-75
2023/09/21 07:51:08;;;;;;;13.73;3.35;;;;;;;;;;4961921;28;20021;-74
2023/09/21 07:53:40;;;;;;;9.93;3.95;;;;;;;;;;4959913;28;20495;-74
2023/09/21 07:56:12;;;;;;;11.43;3.40;;;;;;;;;;4957460;29;20066;-73
2023/09/21 07:58:37;;;;;;;8.93;3.20;;;;;;;;;;4957375;29;20059;-74
2023/09/21 08:01:03;;;;;;;9.45;3.25;;;;;;;;;;4956655;29;20039;-74
2023/09/21 08:03:29;;;;;;;6.63;3.65;;;;;;;;;;4960696;28;20029;-73
2023/09/21 08:05:59;;;;;;;5.10;3.47;;;;;;;;;;4956122;28;20032;-73
2023/09/21 08:08:25;;;;;;;12.23;4.47;;;;;;;;;;4950552;29;20049;-74
2023/09/21 08:10:52;;;;;;;12.35;3.42;;;;;;;;;;4949963;28;20031;-73
2023/09/21 08:13:19;;;;;;;51.63;6.30;;;;;;;;;;4954618;28;20020;-73
2023/09/21 08:15:46;;;;;;;5.00;3.22;;;;;;;;;;4965045;28;20027;-73
2023/09/21 08:18:12;;;;;;;9.65;3.30;;;;;;;;;;4956836;28;20085;-73
2023/09/21 08:20:41;;;;;;;9.55;3.63;;;;;;;;;;4958091;28;20028;-73
2023/09/21 08:23:07;;;;;;;9.63;3.47;;;;;;;;;;4957442;28;20043;-72
2023/09/21 08:25:34;;;;;;;8.88;3.50;;;;;;;;;;4958127;28;20110;-73
2023/09/21 08:28:00;;;;;;;5.43;3.35;;;;;;;;;;4955670;28;20030;-73
2023/09/21 08:30:26;;;;;;;15.18;3.70;;;;;;;;;;4961693;28;20015;-72
2023/09/21 08:32:52;;;;;;;15.55;4.10;;;;;;;;;;4962583;28;20538;-72
2023/09/21 08:35:17;;;;;;;7.55;4.22;;;;;;;;;;4961626;28;20035;-73
2023/09/21 08:37:43;;;;;;;5.47;3.20;;;;;;;;;;4956181;28;20027;-74
2023/09/21 08:40:10;;;;;;;13.80;3.22;;;;;;;;;;4955727;28;20034;-74
2023/09/21 08:42:36;;;;;;;10.70;3.40;;;;;;;;;;4955028;28;20094;-75
2023/09/21 08:45:09;;;;;;;13.68;3.65;;;;;;;;;;4956909;28;20412;-73
2023/09/21 08:47:40;;;;;;;6.22;2.83;;;;;;;;;;4955093;28;20027;-73
2023/09/21 08:50:07;;;;;;;10.50;3.70;;;;;;;;;;4953308;28;20059;-72
2023/09/21 08:52:33;;;;;;;7.32;3.70;;;;;;;;;;4954139;28;20027;-73
2023/09/21 08:54:59;;;;;;;14.07;3.00;;;;;;;;;;4954665;28;20031;-72
2023/09/21 08:57:25;;;;;;;5.72;3.30;;;;;;;;;;4954184;28;20026;-75
2023/09/21 08:59:58;;;;;;;6.85;2.72;;;;;;;;;;4954344;28;20027;-73
2023/09/21 09:02:24;;;;;;;7.85;3.53;;;;;;;;;;4952680;28;20118;-72
2023/09/21 09:04:51;;;;;;;7.57;3.25;;;;;;;;;;4954084;28;20455;-72
2023/09/21 09:07:18;;;;;;;6.57;3.20;;;;;;;;;;4953996;28;20118;-72
2023/09/21 09:09:45;;;;;;;11.00;3.30;;;;;;;;;;4954053;28;20028;-71
2023/09/21 09:12:21;;;;;;;11.30;4.10;;;;;;;;;;4954059;28;20114;-70
2023/09/21 09:14:47;;;;;;;5.47;3.08;;;;;;;;;;4954462;28;20040;-71
2023/09/21 09:17:14;;;;;;;9.45;4.03;;;;;;;;;;4954044;28;20357;-71
2023/09/21 09:19:39;;;;;;;8.25;3.85;;;;;;;;;;4953897;28;20472;-70
2023/09/21 09:22:05;;;;;;;10.20;4.00;;;;;;;;;;4953812;28;20030;-72
2023/09/21 09:24:31;;;;;;;7.47;3.63;;;;;;;;;;4953996;28;20380;-70
2023/09/21 09:27:00;;;;;;;9.65;3.50;;;;;;;;;;4953927;28;20483;-70
2023/09/21 09:29:26;;;;;;;8.88;3.65;;;;;;;;;;4953871;28;20033;-71
2023/09/21 09:31:52;;;;;;;13.38;3.85;;;;;;;;;;4957635;28;20034;-72
2023/09/21 09:34:18;;;;;;;6.95;3.47;;;;;;;;;;4957565;28;20028;-72
2023/09/21 09:36:50;;;;;;;7.47;3.33;;;;;;;;;;4957607;28;20027;-70
2023/09/21 09:39:15;;;;;;;9.85;3.33;;;;;;;;;;4956541;28;20381;-71
2023/09/21 09:41:41;;;;;;;11.85;3.30;;;;;;;;;;4957162;28;20114;-70
2023/09/21 09:44:10;;;;;;;6.38;3.28;;;;;;;;;;4954475;28;20043;-71
2023/09/21 09:46:41;;;;;;;10.07;3.63;;;;;;;;;;4957409;28;20030;-71
2023/09/21 09:49:08;;;;;;;10.82;3.72;;;;;;;;;;4957116;28;20543;-72
2023/09/21 09:51:41;;;;;;;8.85;3.15;;;;;;;;;;4957190;28;20086;-70
2023/09/21 09:54:09;;;;;;;14.20;3.53;;;;;;;;;;4957163;28;20035;-71
2023/09/21 09:56:41;;;;;;;6.03;3.42;;;;;;;;;;4956998;28;20054;-71
2023/09/21 09:59:09;;;;;;;7.28;3.33;;;;;;;;;;4955389;28;20035;-72
2023/09/21 10:01:37;;;;;;;6.18;3.42;;;;;;;;;;4956535;28;20027;-72
2023/09/21 10:04:05;;;;;;;11.13;4.25;;;;;;;;;;4955198;28;20087;-71
2023/09/21 10:06:34;;;;;;;5.97;3.53;;;;;;;;;;4955447;28;20258;-72
2023/09/21 10:09:02;;;;;;;9.65;3.38;;;;;;;;;;4955175;28;20499;-70
2023/09/21 10:11:28;;;;;;;8.65;3.63;;;;;;;;;;4955629;28;20464;-71
2023/09/21 10:13:55;;;;;;;9.57;3.63;;;;;;;;;;4955682;28;20019;-71
2023/09/21 10:16:24;;;;;;;8.90;3.70;;;;;;;;;;4955743;28;20023;-72
2023/09/21 10:18:57;;;;;;;7.90;3.85;;;;;;;;;;4956269;28;20023;-72
2023/09/21 10:21:31;;;;;;;8.20;3.72;;;;;;;;;;4956616;28;20085;-72
2023/09/21 10:24:29;;;;;;;10.95;3.55;;;;;;;;;;4956934;28;20089;-72
2023/09/21 10:27:01;;;;;;;6.53;3.38;;;;;;;;;;4949156;28;20039;-72
2023/09/21 10:29:32;;;;;;;5.63;3.60;;;;;;;;;;4956701;28;20521;-72
2023/09/21 10:32:03;;;;;;;6.03;3.53;;;;;;;;;;4956602;28;20468;-71
2023/09/21 10:34:29;;;;;;;10.60;3.70;;;;;;;;;;4956477;28;20079;-72
2023/09/21 10:37:10;;;;;;;8.02;3.72;;;;;;;;;;4956495;28;20031;-72
2023/09/21 10:39:39;;;;;;;6.78;3.50;;;;;;;;;;4956383;28;20032;-71
2023/09/21 10:42:05;;;;;;;5.97;3.40;;;;;;;;;;4955716;28;20027;-71
2023/09/21 10:44:56;;;;;;;5.78;3.78;;;;;;;;;;4955544;28;20414;-72
2023/09/21 10:47:44;;;;;;;6.38;3.85;;;;;;;;;;4956491;28;20115;-71
2023/09/21 10:50:15;;;;;;;7.32;3.83;;;;;;;;;;4956174;28;20058;-71
2023/09/21 10:52:45;;;;;;;4.65;3.30;;;;;;;;;;4956205;28;20027;-71
2023/09/21 10:55:14;;;;;;;7.35;3.30;;;;;;;;;;4956407;28;20027;-72
2023/09/21 10:57:41;;;;;;;6.13;3.45;;;;;;;;;;4956123;28;20028;-70
2023/09/21 11:00:08;;;;;;;5.88;3.50;;;;;;;;;;4955968;28;20484;-72
2023/09/21 11:02:37;;;;;;;5.18;3.63;;;;;;;;;;4955739;28;20392;-72
2023/09/21 11:05:03;;;;;;;5.03;3.33;;;;;;;;;;4955979;28;20035;-70
2023/09/21 11:07:29;;;;;;;5.97;3.40;;;;;;;;;;4955833;28;20023;-71
2023/09/21 11:09:56;;;;;;;6.57;3.33;;;;;;;;;;4955862;28;20027;-72
2023/09/21 11:12:22;;;;;;;4.03;3.38;;;;;;;;;;4955864;28;20020;-71
2023/09/21 11:14:48;;;;;;;9.25;3.35;;;;;;;;;;4955593;28;20530;-71
2023/09/21 11:17:18;;;;;;;7.78;3.67;;;;;;;;;;4955709;28;20024;-71
2023/09/21 11:19:46;;;;;;;5.70;3.45;;;;;;;;;;4956007;28;20035;-71
2023/09/21 11:22:12;;;;;;;4.82;3.30;;;;;;;;;;4955636;28;20031;-71
2023/09/21 11:24:39;;;;;;;7.35;3.20;;;;;;;;;;4955918;28;20380;-71
2023/09/21 11:27:11;;;;;;;6.47;3.13;;;;;;;;;;4955558;28;20031;-71
2023/09/21 11:29:39;;;;;;;9.52;3.50;;;;;;;;;;4955491;28;20034;-72
2023/09/21 11:32:12;;;;;;;4.90;3.08;;;;;;;;;;4955455;28;20048;-71
2023/09/21 11:34:41;;;;;;;7.72;2.80;;;;;;;;;;4955408;28;20028;-73
2023/09/21 11:37:09;;;;;;;7.18;3.45;;;;;;;;;;4955503;28;20038;-71
2023/09/21 11:39:48;;;;;;;4.45;3.10;;;;;;;;;;4955357;28;20023;-71
2023/09/21 11:42:17;;;;;;;9.13;3.30;;;;;;;;;;4954964;28;20051;-71
2023/09/21 11:44:43;;;;;;;5.95;3.08;;;;;;;;;;4955542;28;20078;-71
2023/09/21 11:47:09;;;;;;;5.65;2.72;;;;;;;;;;4955252;28;20024;-71
2023/09/21 11:49:43;;;;;;;4.32;3.22;;;;;;;;;;4955161;28;20028;-72
2023/09/21 11:52:10;;;;;;;7.90;3.28;;;;;;;;;;4954978;28;20023;-71
2023/09/21 11:54:39;;;;;;;5.93;3.53;;;;;;;;;;4954878;28;20070;-72
2023/09/21 11:57:11;;;;;;;5.97;3.10;;;;;;;;;;4954794;28;20020;-71
2023/09/21 11:59:42;;;;;;;5.20;3.20;;;;;;;;;;4954819;28;20114;-72
2023/09/21 12:02:14;;;;;;;5.82;3.20;;;;;;;;;;4954797;28;20452;-73
2023/09/21 12:04:41;;;;;;;6.97;3.13;;;;;;;;;;4954919;28;20106;-75
2023/09/21 12:07:09;;;;;;;5.93;3.13;;;;;;;;;;4954727;28;20034;-73
2023/09/21 12:09:40;;;;;;;4.85;3.13;;;;;;;;;;4954775;28;20110;-71
2023/09/21 12:12:10;;;;;;;5.15;2.95;;;;;;;;;;4954615;28;20023;-71
2023/09/21 12:14:36;;;;;;;4.75;2.85;;;;;;;;;;4954973;28;20035;-71
2023/09/21 12:17:09;;;;;;;5.78;2.95;;;;;;;;;;4954706;28;20027;-73
2023/09/21 12:19:39;;;;;;;5.75;3.13;;;;;;;;;;4953242;28;20038;-73
2023/09/21 12:22:08;;;;;;;6.03;3.30;;;;;;;;;;4954486;28;20035;-73
2023/09/21 12:24:34;;;;;;;6.43;2.97;;;;;;;;;;4954519;28;20039;-72
2023/09/21 12:27:05;;;;;;;8.95;3.05;;;;;;;;;;4954444;28;20050;-71
2023/09/21 12:29:31;;;;;;;9.15;3.40;;;;;;;;;;4954524;28;20106;-73
2023/09/21 12:31:58;;;;;;;5.35;2.88;;;;;;;;;;4954630;28;20113;-72
2023/09/21 12:34:24;;;;;;;5.60;2.90;;;;;;;;;;4954448;28;20085;-72
2023/09/21 12:36:50;;;;;;;5.80;3.22;;;;;;;;;;4954387;28;20031;-73
2023/09/21 12:39:15;;;;;;;6.15;3.10;;;;;;;;;;4954342;28;20031;-71
2023/09/21 12:41:43;;;;;;;9.95;3.17;;;;;;;;;;4954257;28;20054;-71
2023/09/21 12:44:10;;;;;;;5.15;3.05;;;;;;;;;;4954132;28;20094;-72
2023/09/21 12:46:37;;;;;;;6.10;3.30;;;;;;;;;;4954195;28;20039;-73
2023/09/21 12:49:04;;;;;;;6.00;3.17;;;;;;;;;;4954310;28;20078;-73
2023/09/21 12:51:33;;;;;;;12.23;3.42;;;;;;;;;;4954232;28;20106;-73
2023/09/21 12:54:00;;;;;;;6.95;3.22;;;;;;;;;;4954071;28;20027;-73
2023/09/21 12:56:26;;;;;;;6.28;3.10;;;;;;;;;;4954014;28;20476;-73
2023/09/21 12:58:53;;;;;;;5.85;3.17;;;;;;;;;;4954051;28;20066;-72
2023/09/21 13:01:19;;;;;;;3.65;2.97;;;;;;;;;;4954296;28;20074;-74
2023/09/21 13:03:45;;;;;;;5.75;3.05;;;;;;;;;;4954683;28;20027;-72
2023/09/21 13:06:13;;;;;;;7.40;3.15;;;;;;;;;;4958130;28;20050;-72
2023/09/21 13:08:39;;;;;;;5.45;3.38;;;;;;;;;;4958251;28;20066;-72
2023/09/21 13:11:05;;;;;;;5.63;3.05;;;;;;;;;;4958105;28;20452;-72
2023/09/21 13:13:36;;;;;;;5.25;3.20;;;;;;;;;;4958273;28;20025;-72
2023/09/21 13:16:04;;;;;;;8.10;3.25;;;;;;;;;;4957920;28;20059;-71
2023/09/21 13:18:32;;;;;;;5.85;3.25;;;;;;;;;;4957914;28;20394;-71
2023/09/21 13:20:58;;;;;;;7.53;3.38;;;;;;;;;;4957839;28;20519;-72
2023/09/21 13:23:24;;;;;;;5.35;3.03;;;;;;;;;;4957510;28;20031;-73
2023/09/21 13:25:50;;;;;;;8.07;3.17;;;;;;;;;;4957884;28;20469;-72
2023/09/21 13:28:15;;;;;;;5.90;3.10;;;;;;;;;;4957855;28;20051;-72
2023/09/21 13:30:43;;;;;;;7.78;3.20;;;;;;;;;;4956395;29;20396;-69
2023/09/21 13:33:11;;;;;;;5.05;2.80;;;;;;;;;;4957887;28;20038;-72
2023/09/21 13:35:36;;;;;;;5.57;2.90;;;;;;;;;;4957617;28;20019;-71
2023/09/21 13:38:02;;;;;;;4.78;2.80;;;;;;;;;;4957540;28;20038;-71
2023/09/21 13:40:29;;;;;;;6.45;2.90;;;;;;;;;;4957509;28;20023;-70
2023/09/21 13:42:55;;;;;;;4.63;3.08;;;;;;;;;;4955779;28;20526;-70
2023/09/21 13:45:20;;;;;;;3.25;2.78;;;;;;;;;;4957335;28;20027;-70
2023/09/21 13:47:48;;;;;;;5.68;3.30;;;;;;;;;;4957419;28;20038;-70
2023/09/21 13:50:14;;;;;;;6.40;3.42;;;;;;;;;;4957349;28;20384;-70
2023/09/21 13:52:40;;;;;;;4.47;3.00;;;;;;;;;;4957208;28;20384;-70
2023/09/21 13:55:06;;;;;;;8.05;3.25;;;;;;;;;;4957569;28;20468;-70
2023/09/21 13:57:32;;;;;;;5.95;3.00;;;;;;;;;;4957455;28;20039;-70
2023/09/21 13:59:57;;;;;;;6.20;3.03;;;;;;;;;;4957379;28;20050;-70
2023/09/21 14:02:23;;;;;;;3.60;2.85;;;;;;;;;;4957065;28;20034;-69
2023/09/21 14:04:49;;;;;;;6.80;3.28;;;;;;;;;;4957081;28;20483;-67
2023/09/21 14:07:15;;;;;;;3.90;3.05;;;;;;;;;;4957057;28;20102;-69
2023/09/21 14:09:41;;;;;;;5.95;2.97;;;;;;;;;;4956977;28;20319;-68
2023/09/21 14:12:07;;;;;;;7.50;3.22;;;;;;;;;;4956845;28;20031;-70
2023/09/21 14:14:34;;;;;;;5.60;3.10;;;;;;;;;;4956937;28;20391;-70
2023/09/21 14:17:00;;;;;;;8.15;3.03;;;;;;;;;;4955992;28;20031;-70
2023/09/21 14:19:26;;;;;;;8.75;3.15;;;;;;;;;;4956768;28;20023;-72
2023/09/21 14:21:54;;;;;;;12.65;3.60;;;;;;;;;;4955481;28;20074;-70
2023/09/21 14:24:22;;;;;;;11.05;3.08;;;;;;;;;;4957098;28;20027;-71
2023/09/21 14:26:48;;;;;;;11.07;3.53;;;;;;;;;;4956562;28;20034;-71
2023/09/21 14:29:13;;;;;;;12.35;3.28;;;;;;;;;;4956649;28;20027;-70
2023/09/21 14:31:39;;;;;;;11.73;3.22;;;;;;;;;;4956604;28;20551;-70
2023/09/21 14:34:05;;;;;;;5.55;2.83;;;;;;;;;;4956558;28;20416;-72
2023/09/21 14:36:30;;;;;;;9.38;3.83;;;;;;;;;;4956509;28;20468;-71
2023/09/21 14:38:56;;;;;;;11.38;3.65;;;;;;;;;;4956465;28;20027;-70
2023/09/21 14:41:22;;;;;;;10.05;3.35;;;;;;;;;;4956219;28;20027;-71
2023/09/21 14:43:48;;;;;;;10.85;3.30;;;;;;;;;;4956340;28;20546;-71
2023/09/21 14:46:13;;;;;;;10.20;3.45;;;;;;;;;;4956311;29;20035;-71
2023/09/21 14:48:39;;;;;;;10.50;3.17;;;;;;;;;;4956247;28;20027;-71
2023/09/21 14:51:04;;;;;;;12.38;3.40;;;;;;;;;;4956274;28;20053;-71
2023/09/21 14:53:30;;;;;;;9.68;3.38;;;;;;;;;;4954915;28;20031;-71
2023/09/21 14:55:56;;;;;;;11.18;3.53;;;;;;;;;;4947207;28;20059;-70
2023/09/21 14:58:22;;;;;;;4.95;3.13;;;;;;;;;;4952646;28;20114;-70
2023/09/21 15:00:48;;;;;;;10.25;3.45;;;;;;;;;;4943767;29;20488;-71
2023/09/21 15:03:15;;;;;;;8.68;3.55;;;;;;;;;;4951886;29;20431;-71
2023/09/21 15:05:41;;;;;;;11.90;3.40;;;;;;;;;;4954743;28;20024;-71
2023/09/21 15:08:07;;;;;;;14.20;3.67;;;;;;;;;;4953827;28;20038;-72
2023/09/21 15:10:32;;;;;;;13.88;3.72;;;;;;;;;;4954662;29;20027;-70
2023/09/21 15:12:58;;;;;;;11.10;3.90;;;;;;;;;;4955770;28;20019;-71
2023/09/21 15:15:24;;;;;;;18.98;3.75;;;;;;;;;;4963470;28;20027;-70
2023/09/21 15:17:50;;;;;;;11.90;3.40;;;;;;;;;;4965328;28;20027;-71
2023/09/21 15:20:16;;;;;;;9.52;3.45;;;;;;;;;;4966641;28;20034;-69
2023/09/21 15:22:41;;;;;;;8.40;3.28;;;;;;;;;;4971520;28;20035;-68
2023/09/21 15:25:07;;;;;;;14.23;3.40;;;;;;;;;;4962812;28;20035;-68
2023/09/21 15:27:33;;;;;;;10.77;3.40;;;;;;;;;;4964517;28;20023;-69
2023/09/21 15:29:59;;;;;;;20.45;4.85;;;;;;;;;;4965051;28;20031;-69
2023/09/21 15:32:24;;;;;;;15.98;4.50;;;;;;;;;;4961475;28;20058;-69
2023/09/21 15:34:51;;;;;;;18.88;4.20;;;;;;;;;;4954326;29;20032;-71
2023/09/21 15:37:19;;;;;;;15.27;4.50;;;;;;;;;;4953176;28;20031;-68
2023/09/21 15:39:45;;;;;;;13.25;4.03;;;;;;;;;;4958535;28;20035;-71
2023/09/21 15:42:11;;;;;;;14.35;3.78;;;;;;;;;;4953227;28;20039;-72
2023/09/21 15:44:36;;;;;;;15.07;4.40;;;;;;;;;;4951345;29;20050;-69
2023/09/21 15:47:03;;;;;;;19.92;3.63;;;;;;;;;;4954164;29;20110;-70
2023/09/21 15:49:29;;;;;;;13.40;3.67;;;;;;;;;;4955270;28;20042;-70
2023/09/21 15:51:55;;;;;;;10.00;3.53;;;;;;;;;;4955336;28;20035;-70
2023/09/21 15:54:20;;;;;;;14.90;3.63;;;;;;;;;;4955276;28;20027;-69
2023/09/21 15:56:46;;;;;;;16.48;3.70;;;;;;;;;;4954993;28;20388;-69
2023/09/21 15:59:12;;;;;;;9.95;3.72;;;;;;;;;;4955114;28;20086;-69
2023/09/21 16:01:38;;;;;;;14.75;3.33;;;;;;;;;;4954817;28;20497;-69
2023/09/21 16:04:07;;;;;;;16.92;3.75;;;;;;;;;;4954615;28;20122;-69
2023/09/21 16:06:36;;;;;;;16.92;3.47;;;;;;;;;;4954775;28;20168;-69
2023/09/21 16:09:06;;;;;;;14.55;3.60;;;;;;;;;;4956514;28;20065;-69
2023/09/21 16:11:33;;;;;;;8.90;3.40;;;;;;;;;;4954956;28;20034;-70
2023/09/21 16:13:59;;;;;;;13.13;3.05;;;;;;;;;;4954610;29;20034;-69
2023/09/21 16:16:25;;;;;;;22.13;3.80;;;;;;;;;;4954722;28;20388;-69
2023/09/21 16:18:51;;;;;;;9.07;3.33;;;;;;;;;;4954767;28;20063;-69
2023/09/21 16:21:17;;;;;;;7.95;3.10;;;;;;;;;;4953477;28;20179;-69
2023/09/21 16:23:43;;;;;;;8.32;2.95;;;;;;;;;;4954912;28;20027;-68
2023/09/21 16:26:09;;;;;;;11.75;3.03;;;;;;;;;;4953109;28;20031;-69
2023/09/21 16:28:34;;;;;;;11.40;3.25;;;;;;;;;;4954529;28;20106;-71
2023/09/21 16:31:00;;;;;;;11.98;3.05;;;;;;;;;;4954722;28;20023;-69
2023/09/21 16:33:26;;;;;;;8.45;3.42;;;;;;;;;;4955995;28;20015;-68
2023/09/21 16:36:00;;;;;;;10.57;3.47;;;;;;;;;;4956370;28;20074;-69
2023/09/21 16:38:35;;;;;;;11.27;3.60;;;;;;;;;;4954233;29;20024;-70
2023/09/21 16:41:04;;;;;;;10.48;3.70;;;;;;;;;;4954823;28;20089;-71
2023/09/21 16:43:29;;;;;;;12.67;3.60;;;;;;;;;;4954126;29;20082;-70
2023/09/21 16:45:55;;;;;;;14.82;3.42;;;;;;;;;;4954372;28;20137;-69
2023/09/21 16:48:21;;;;;;;13.95;3.47;;;;;;;;;;4954168;29;20023;-68
2023/09/21 16:50:47;;;;;;;13.50;3.97;;;;;;;;;;4954294;28;20031;-69
2023/09/21 16:53:13;;;;;;;8.00;3.50;;;;;;;;;;4960862;28;20042;-73
2023/09/21 16:55:39;;;;;;;15.73;3.55;;;;;;;;;;4955002;28;20026;-69
2023/09/21 16:58:05;;;;;;;10.93;3.50;;;;;;;;;;4954269;29;20543;-69
2023/09/21 17:00:31;;;;;;;11.77;3.58;;;;;;;;;;4954147;29;20059;-69
2023/09/21 17:02:56;;;;;;;8.32;3.30;;;;;;;;;;4954134;29;20031;-68
2023/09/21 17:05:23;;;;;;;10.63;3.53;;;;;;;;;;4954086;28;20023;-69
2023/09/21 17:07:52;;;;;;;7.80;3.75;;;;;;;;;;4954211;28;20042;-68
2023/09/21 17:10:18;;;;;;;11.00;3.60;;;;;;;;;;4954149;29;20033;-69
2023/09/21 17:12:45;;;;;;;9.82;3.45;;;;;;;;;;4954244;29;20028;-69
2023/09/21 17:15:13;;;;;;;13.25;3.60;;;;;;;;;;4954349;29;20563;-71
2023/09/21 17:17:46;;;;;;;24.63;5.25;;;;;;;;;;4954181;29;20028;-69
2023/09/21 17:20:13;;;;;;;19.00;4.05;;;;;;;;;;4954029;29;20032;-68
2023/09/21 17:22:42;;;;;;;10.98;3.20;;;;;;;;;;4953957;28;20118;-68
2023/09/21 17:25:09;;;;;;;13.13;3.70;;;;;;;;;;4953925;29;20078;-67
2023/09/21 17:27:36;;;;;;;10.60;3.10;;;;;;;;;;4952832;29;20035;-68
2023/09/21 17:30:03;;;;;;;11.63;3.10;;;;;;;;;;4954088;28;20031;-68
2023/09/21 17:32:31;;;;;;;6.32;3.22;;;;;;;;;;4953968;28;20030;-68
2023/09/21 17:34:57;;;;;;;13.65;3.40;;;;;;;;;;4960079;28;20372;-69
2023/09/21 17:37:23;;;;;;;11.05;3.35;;;;;;;;;;4965263;28;20034;-71
2023/09/21 17:39:51;;;;;;;11.07;3.42;;;;;;;;;;4963212;28;20129;-68
2023/09/21 17:42:17;;;;;;;9.55;3.03;;;;;;;;;;4971520;28;20062;-71
2023/09/21 17:44:43;;;;;;;10.82;3.25;;;;;;;;;;4963517;28;20432;-69
2023/09/21 17:47:10;;;;;;;8.85;3.80;;;;;;;;;;4953776;29;20030;-70
2023/09/21 17:49:36;;;;;;;10.15;3.17;;;;;;;;;;4954147;28;20027;-71
2023/09/21 17:52:03;;;;;;;16.73;3.33;;;;;;;;;;4971978;28;20480;-71
2023/09/21 17:54:29;;;;;;;11.40;3.33;;;;;;;;;;4973388;28;20079;-71
2023/09/21 17:56:54;;;;;;;10.75;3.22;;;;;;;;;;4958844;28;20035;-70
2023/09/21 17:59:21;;;;;;;9.57;3.00;;;;;;;;;;4961124;28;20019;-71
2023/09/21 18:01:47;;;;;;;12.50;3.30;;;;;;;;;;4960444;28;20484;-72
2023/09/21 18:04:12;;;;;;;12.43;3.22;;;;;;;;;;4958300;28;20161;-72
2023/09/21 18:06:38;;;;;;;9.38;3.08;;;;;;;;;;4960698;28;20034;-70
2023/09/21 18:09:07;;;;;;;6.88;3.15;;;;;;;;;;4967557;28;20158;-71
2023/09/21 18:11:36;;;;;;;13.05;3.10;;;;;;;;;;4976487;28;20113;-71
2023/09/21 18:14:03;;;;;;;6.53;3.05;;;;;;;;;;4969715;28;20106;-71
2023/09/21 18:16:28;;;;;;;7.82;2.72;;;;;;;;;;4958402;29;20111;-71
2023/09/21 18:18:54;;;;;;;7.88;2.83;;;;;;;;;;4965042;28;20030;-71
2023/09/21 18:21:20;;;;;;;5.65;2.30;;;;;;;;;;4968733;28;20103;-71
2023/09/21 18:23:45;;;;;;;7.25;2.65;;;;;;;;;;4962866;28;20054;-71
2023/09/21 18:26:13;;;;;;;12.95;3.13;;;;;;;;;;4958012;28;20058;-73
2023/09/21 18:28:38;;;;;;;8.07;3.00;;;;;;;;;;4957855;29;20031;-72
2023/09/21 18:31:04;;;;;;;5.50;2.47;;;;;;;;;;4957175;28;20380;-72
2023/09/21 18:33:30;;;;;;;5.30;2.38;;;;;;;;;;4958905;29;20055;-71
2023/09/21 18:35:55;;;;;;;6.45;2.60;;;;;;;;;;4959747;29;20501;-71
2023/09/21 18:38:22;;;;;;;11.73;2.88;;;;;;;;;;4959705;29;20110;-71
2023/09/21 18:40:48;;;;;;;8.35;2.35;;;;;;;;;;4957273;28;20604;-71
2023/09/21 18:43:14;;;;;;;6.65;2.63;;;;;;;;;;4957632;29;20051;-71
2023/09/21 18:45:40;;;;;;;6.40;2.50;;;;;;;;;;4957794;29;20106;-71
2023/09/21 18:48:06;;;;;;;8.50;2.55;;;;;;;;;;4959195;29;20495;-71
2023/09/21 18:50:31;;;;;;;10.02;2.80;;;;;;;;;;4959119;28;20070;-70
2023/09/21 18:52:57;;;;;;;9.82;2.80;;;;;;;;;;4958837;29;20053;-71
2023/09/21 18:55:22;;;;;;;5.07;2.10;;;;;;;;;;4957319;28;20034;-67
2023/09/21 18:57:49;;;;;;;8.65;2.92;;;;;;;;;;4956120;28;20027;-70
2023/09/21 19:00:16;;;;;;;9.43;3.08;;;;;;;;;;4955057;29;20082;-71
2023/09/21 19:02:42;;;;;;;9.50;2.60;;;;;;;;;;4955821;28;20035;-71
2023/09/21 19:05:09;;;;;;;7.05;2.40;;;;;;;;;;4956152;28;20035;-71
2023/09/21 19:07:36;;;;;;;5.53;2.40;;;;;;;;;;4956039;29;20023;-72
2023/09/21 19:10:03;;;;;;;5.13;2.40;;;;;;;;;;4955844;29;20031;-71
2023/09/21 19:12:29;;;;;;;6.25;2.60;;;;;;;;;;4955812;29;20027;-71
2023/09/21 19:14:56;;;;;;;7.53;2.55;;;;;;;;;;4955904;29;20106;-71
2023/09/21 19:17:22;;;;;;;7.07;2.60;;;;;;;;;;4955801;29;20020;-71
2023/09/21 19:19:47;;;;;;;11.65;2.60;;;;;;;;;;4955750;29;20089;-74
2023/09/21 19:22:15;;;;;;;7.47;2.40;;;;;;;;;;4956202;28;20110;-73
2023/09/21 19:24:41;;;;;;;5.85;2.05;;;;;;;;;;4957588;29;20054;-70
2023/09/21 19:27:07;;;;;;;5.25;2.13;;;;;;;;;;4958183;29;20047;-70
2023/09/21 19:29:33;;;;;;;8.02;2.20;;;;;;;;;;4956713;28;20098;-70
2023/09/21 19:31:59;;;;;;;10.95;1.92;;;;;;;;;;4957280;28;20086;-71
2023/09/21 19:34:25;;;;;;;17.50;3.28;;;;;;;;;;4957512;28;20469;-68
2023/09/21 19:36:50;;;;;;;5.55;2.30;;;;;;;;;;4957793;29;20034;-68
2023/09/21 19:39:16;;;;;;;5.55;2.08;;;;;;;;;;4955847;29;20035;-71
2023/09/21 19:41:42;;;;;;;6.72;2.30;;;;;;;;;;4956735;29;20424;-70
2023/09/21 19:44:08;;;;;;;4.63;2.00;;;;;;;;;;4955814;29;20047;-69